sensor_id;sensor_type;location;lat;lon;timestamp;P1;durP1;ratioP1;P2;durP2;ratioP2
36725;SDS011;44936;52.086;5.150;2024-02-26T00:00:03;0.00;;;0.00;;
36725;SDS011;44936;52.086;5.150;2024-02-26T00:02:30;0.00;;;0.00;;
36725;SDS011;44936;52.086;5.150;2024-02-26T00:04:56;0.00;;;0.00;;
36725;SDS011;44936;52.086;5.150;2024-02-26T00:07:21;0.00;;;0.00;;
36725;SDS011;44936;52.086;5.150;2024-02-26T00:09:47;0.00;;;0.00;;
36725;SDS011;44936;52.086;5.150;2024-02-26T00:12:12;0.00;;;0.00;;
36725;SDS011;44936;52.086;5.150;2024-02-26T00:14:37;0.00;;;0.00;;
36725;SDS011;44936;52.086;5.150;2024-02-26T00:17:03;0.00;;;0.00;;
36725;SDS011;44936;52.086;5.150;2024-02-26T00:19:28;0.00;;;0.00;;
36725;SDS011;44936;52.086;5.150;2024-02-26T00:21:53;0.00;;;0.00;;
36725;SDS011;44936;52.086;5.150;2024-02-26T00:24:20;0.00;;;0.00;;
36725;SDS011;44936;52.086;5.150;2024-02-26T00:26:45;0.00;;;0.00;;
36725;SDS011;44936;52.086;5.150;2024-02-26T00:29:11;0.00;;;0.00;;
36725;SDS011;44936;52.086;5.150;2024-02-26T00:31:36;0.00;;;0.00;;
36725;SDS011;44936;52.086;5.150;2024-02-26T00:34:03;0.00;;;0.00;;
36725;SDS011;44936;52.086;5.150;2024-02-26T00:36:28;0.00;;;0.00;;
36725;SDS011;44936;52.086;5.150;2024-02-26T00:38:53;0.00;;;0.00;;
36725;SDS011;44936;52.086;5.150;2024-02-26T00:41:20;0.00;;;0.00;;
36725;SDS011;44936;52.086;5.150;2024-02-26T00:43:45;0.00;;;0.00;;
36725;SDS011;44936;52.086;5.150;2024-02-26T00:46:11;0.00;;;0.00;;
36725;SDS011;44936;52.086;5.150;2024-02-26T00:48:36;0.00;;;0.00;;
36725;SDS011;44936;52.086;5.150;2024-02-26T00:51:05;0.00;;;0.00;;
36725;SDS011;44936;52.086;5.150;2024-02-26T00:53:30;0.10;;;0.10;;
36725;SDS011;44936;52.086;5.150;2024-02-26T00:55:56;0.00;;;0.00;;
36725;SDS011;44936;52.086;5.150;2024-02-26T00:58:24;0.00;;;0.00;;
36725;SDS011;44936;52.086;5.150;2024-02-26T01:00:49;0.00;;;0.00;;
36725;SDS011;44936;52.086;5.150;2024-02-26T01:03:14;0.00;;;0.00;;
36725;SDS011;44936;52.086;5.150;2024-02-26T01:05:40;0.00;;;0.00;;
36725;SDS011;44936;52.086;5.150;2024-02-26T01:08:05;0.00;;;0.00;;
36725;SDS011;44936;52.086;5.150;2024-02-26T01:10:30;0.00;;;0.00;;
36725;SDS011;44936;52.086;5.150;2024-02-26T01:12:56;0.00;;;0.00;;
36725;SDS011;44936;52.086;5.150;2024-02-26T01:15:21;0.00;;;0.00;;
36725;SDS011;44936;52.086;5.150;2024-02-26T01:17:49;0.00;;;0.00;;
36725;SDS011;44936;52.086;5.150;2024-02-26T01:20:15;0.00;;;0.00;;
36725;SDS011;44936;52.086;5.150;2024-02-26T01:22:40;0.00;;;0.00;;
36725;SDS011;44936;52.086;5.150;2024-02-26T01:25:06;0.00;;;0.00;;
36725;SDS011;44936;52.086;5.150;2024-02-26T01:27:32;0.00;;;0.00;;
36725;SDS011;44936;52.086;5.150;2024-02-26T01:29:58;0.00;;;0.00;;
36725;SDS011;44936;52.086;5.150;2024-02-26T01:32:23;0.00;;;0.00;;
36725;SDS011;44936;52.086;5.150;2024-02-26T01:34:49;0.00;;;0.00;;
36725;SDS011;44936;52.086;5.150;2024-02-26T01:37:14;0.00;;;0.00;;
36725;SDS011;44936;52.086;5.150;2024-02-26T01:39:39;0.00;;;0.00;;
36725;SDS011;44936;52.086;5.150;2024-02-26T01:42:06;0.00;;;0.00;;
36725;SDS011;44936;52.086;5.150;2024-02-26T01:44:32;0.00;;;0.00;;
36725;SDS011;44936;52.086;5.150;2024-02-26T01:46:58;0.00;;;0.00;;
36725;SDS011;44936;52.086;5.150;2024-02-26T01:49:24;0.00;;;0.00;;
36725;SDS011;44936;52.086;5.150;2024-02-26T01:51:49;0.00;;;0.00;;
36725;SDS011;44936;52.086;5.150;2024-02-26T01:54:15;0.00;;;0.00;;
36725;SDS011;44936;52.086;5.150;2024-02-26T01:56:40;0.10;;;0.10;;
36725;SDS011;44936;52.086;5.150;2024-02-26T01:59:06;0.00;;;0.00;;
36725;SDS011;44936;52.086;5.150;2024-02-26T02:01:33;0.00;;;0.00;;
36725;SDS011;44936;52.086;5.150;2024-02-26T02:04:00;0.00;;;0.00;;
36725;SDS011;44936;52.086;5.150;2024-02-26T02:06:26;0.00;;;0.00;;
36725;SDS011;44936;52.086;5.150;2024-02-26T02:08:53;0.00;;;0.00;;
36725;SDS011;44936;52.086;5.150;2024-02-26T02:11:19;0.00;;;0.00;;
36725;SDS011;44936;52.086;5.150;2024-02-26T02:13:45;0.55;;;0.38;;
36725;SDS011;44936;52.086;5.150;2024-02-26T02:16:10;0.00;;;0.00;;
36725;SDS011;44936;52.086;5.150;2024-02-26T02:18:36;0.00;;;0.00;;
36725;SDS011;44936;52.086;5.150;2024-02-26T02:21:01;0.00;;;0.00;;
36725;SDS011;44936;52.086;5.150;2024-02-26T02:23:26;0.00;;;0.00;;
36725;SDS011;44936;52.086;5.150;2024-02-26T02:25:52;0.00;;;0.00;;
36725;SDS011;44936;52.086;5.150;2024-02-26T02:28:18;0.08;;;0.08;;
36725;SDS011;44936;52.086;5.150;2024-02-26T02:30:44;0.00;;;0.00;;
36725;SDS011;44936;52.086;5.150;2024-02-26T02:33:09;0.00;;;0.00;;
36725;SDS011;44936;52.086;5.150;2024-02-26T02:35:36;0.00;;;0.00;;
36725;SDS011;44936;52.086;5.150;2024-02-26T02:38:02;0.00;;;0.00;;
36725;SDS011;44936;52.086;5.150;2024-02-26T02:40:28;0.00;;;0.00;;
36725;SDS011;44936;52.086;5.150;2024-02-26T02:42:53;0.00;;;0.00;;
36725;SDS011;44936;52.086;5.150;2024-02-26T02:45:18;0.00;;;0.00;;
36725;SDS011;44936;52.086;5.150;2024-02-26T02:47:44;0.00;;;0.00;;
36725;SDS011;44936;52.086;5.150;2024-02-26T02:50:09;0.13;;;0.13;;
36725;SDS011;44936;52.086;5.150;2024-02-26T02:52:35;0.00;;;0.00;;
36725;SDS011;44936;52.086;5.150;2024-02-26T02:55:00;0.00;;;0.00;;
36725;SDS011;44936;52.086;5.150;2024-02-26T02:57:26;0.00;;;0.00;;
36725;SDS011;44936;52.086;5.150;2024-02-26T02:59:52;0.00;;;0.00;;
36725;SDS011;44936;52.086;5.150;2024-02-26T03:02:17;0.00;;;0.00;;
36725;SDS011;44936;52.086;5.150;2024-02-26T03:04:42;0.00;;;0.00;;
36725;SDS011;44936;52.086;5.150;2024-02-26T03:07:08;0.00;;;0.00;;
36725;SDS011;44936;52.086;5.150;2024-02-26T03:09:33;0.00;;;0.00;;
36725;SDS011;44936;52.086;5.150;2024-02-26T03:11:58;0.00;;;0.00;;
36725;SDS011;44936;52.086;5.150;2024-02-26T03:14:24;0.00;;;0.00;;
36725;SDS011;44936;52.086;5.150;2024-02-26T03:16:52;0.00;;;0.00;;
36725;SDS011;44936;52.086;5.150;2024-02-26T03:19:18;0.00;;;0.00;;
36725;SDS011;44936;52.086;5.150;2024-02-26T03:21:44;0.00;;;0.00;;
36725;SDS011;44936;52.086;5.150;2024-02-26T03:24:09;0.00;;;0.00;;
36725;SDS011;44936;52.086;5.150;2024-02-26T03:26:35;0.00;;;0.00;;
36725;SDS011;44936;52.086;5.150;2024-02-26T03:29:01;0.00;;;0.00;;
36725;SDS011;44936;52.086;5.150;2024-02-26T03:31:27;0.00;;;0.00;;
36725;SDS011;44936;52.086;5.150;2024-02-26T03:33:53;0.00;;;0.00;;
36725;SDS011;44936;52.086;5.150;2024-02-26T03:36:18;0.00;;;0.00;;
36725;SDS011;44936;52.086;5.150;2024-02-26T03:38:44;0.00;;;0.00;;
36725;SDS011;44936;52.086;5.150;2024-02-26T03:41:09;0.00;;;0.00;;
36725;SDS011;44936;52.086;5.150;2024-02-26T03:43:34;0.00;;;0.00;;
36725;SDS011;44936;52.086;5.150;2024-02-26T03:46:00;0.00;;;0.00;;
36725;SDS011;44936;52.086;5.150;2024-02-26T03:48:25;0.00;;;0.00;;
36725;SDS011;44936;52.086;5.150;2024-02-26T03:50:50;0.00;;;0.00;;
36725;SDS011;44936;52.086;5.150;2024-02-26T03:53:16;0.00;;;0.00;;
36725;SDS011;44936;52.086;5.150;2024-02-26T03:55:41;0.00;;;0.00;;
36725;SDS011;44936;52.086;5.150;2024-02-26T03:58:07;0.00;;;0.00;;
36725;SDS011;44936;52.086;5.150;2024-02-26T04:00:33;0.00;;;0.00;;
36725;SDS011;44936;52.086;5.150;2024-02-26T04:02:58;0.00;;;0.00;;
36725;SDS011;44936;52.086;5.150;2024-02-26T04:05:23;0.00;;;0.00;;
36725;SDS011;44936;52.086;5.150;2024-02-26T04:07:49;0.00;;;0.00;;
36725;SDS011;44936;52.086;5.150;2024-02-26T04:10:14;0.00;;;0.00;;
36725;SDS011;44936;52.086;5.150;2024-02-26T04:12:40;0.00;;;0.00;;
36725;SDS011;44936;52.086;5.150;2024-02-26T04:15:07;0.15;;;0.15;;
36725;SDS011;44936;52.086;5.150;2024-02-26T04:17:33;0.00;;;0.00;;
36725;SDS011;44936;52.086;5.150;2024-02-26T04:19:58;0.00;;;0.00;;
36725;SDS011;44936;52.086;5.150;2024-02-26T04:22:24;0.00;;;0.00;;
36725;SDS011;44936;52.086;5.150;2024-02-26T04:24:49;0.00;;;0.00;;
36725;SDS011;44936;52.086;5.150;2024-02-26T04:27:14;0.20;;;0.20;;
36725;SDS011;44936;52.086;5.150;2024-02-26T04:29:39;0.00;;;0.00;;
36725;SDS011;44936;52.086;5.150;2024-02-26T04:32:06;0.00;;;0.00;;
36725;SDS011;44936;52.086;5.150;2024-02-26T04:34:31;0.00;;;0.00;;
36725;SDS011;44936;52.086;5.150;2024-02-26T04:36:57;0.00;;;0.00;;
36725;SDS011;44936;52.086;5.150;2024-02-26T04:39:22;0.00;;;0.00;;
36725;SDS011;44936;52.086;5.150;2024-02-26T04:41:47;0.00;;;0.00;;
36725;SDS011;44936;52.086;5.150;2024-02-26T04:44:12;0.00;;;0.00;;
36725;SDS011;44936;52.086;5.150;2024-02-26T04:46:38;0.00;;;0.00;;
36725;SDS011;44936;52.086;5.150;2024-02-26T04:49:03;0.00;;;0.00;;
36725;SDS011;44936;52.086;5.150;2024-02-26T04:51:28;0.00;;;0.00;;
36725;SDS011;44936;52.086;5.150;2024-02-26T04:53:53;0.00;;;0.00;;
36725;SDS011;44936;52.086;5.150;2024-02-26T04:56:20;0.00;;;0.00;;
36725;SDS011;44936;52.086;5.150;2024-02-26T04:58:46;0.00;;;0.00;;
36725;SDS011;44936;52.086;5.150;2024-02-26T05:01:12;0.13;;;0.13;;
36725;SDS011;44936;52.086;5.150;2024-02-26T05:03:37;0.00;;;0.00;;
36725;SDS011;44936;52.086;5.150;2024-02-26T05:06:02;0.00;;;0.00;;
36725;SDS011;44936;52.086;5.150;2024-02-26T05:08:28;0.00;;;0.00;;
36725;SDS011;44936;52.086;5.150;2024-02-26T05:10:55;0.00;;;0.00;;
36725;SDS011;44936;52.086;5.150;2024-02-26T05:13:21;0.00;;;0.00;;
36725;SDS011;44936;52.086;5.150;2024-02-26T05:15:46;0.00;;;0.00;;
36725;SDS011;44936;52.086;5.150;2024-02-26T05:18:14;0.00;;;0.00;;
36725;SDS011;44936;52.086;5.150;2024-02-26T05:20:40;0.00;;;0.00;;
36725;SDS011;44936;52.086;5.150;2024-02-26T05:23:05;0.00;;;0.00;;
36725;SDS011;44936;52.086;5.150;2024-02-26T05:25:30;0.00;;;0.00;;
36725;SDS011;44936;52.086;5.150;2024-02-26T05:27:56;0.00;;;0.00;;
36725;SDS011;44936;52.086;5.150;2024-02-26T05:30:21;0.00;;;0.00;;
36725;SDS011;44936;52.086;5.150;2024-02-26T05:32:46;0.00;;;0.00;;
36725;SDS011;44936;52.086;5.150;2024-02-26T05:35:12;0.00;;;0.00;;
36725;SDS011;44936;52.086;5.150;2024-02-26T05:37:37;0.68;;;0.68;;
36725;SDS011;44936;52.086;5.150;2024-02-26T05:40:03;0.00;;;0.00;;
36725;SDS011;44936;52.086;5.150;2024-02-26T05:42:29;0.00;;;0.00;;
36725;SDS011;44936;52.086;5.150;2024-02-26T05:44:54;0.00;;;0.00;;
36725;SDS011;44936;52.086;5.150;2024-02-26T05:47:20;0.00;;;0.00;;
36725;SDS011;44936;52.086;5.150;2024-02-26T05:49:45;0.10;;;0.10;;
36725;SDS011;44936;52.086;5.150;2024-02-26T05:52:10;0.00;;;0.00;;
36725;SDS011;44936;52.086;5.150;2024-02-26T05:54:36;0.47;;;0.47;;
36725;SDS011;44936;52.086;5.150;2024-02-26T05:57:01;0.00;;;0.00;;
36725;SDS011;44936;52.086;5.150;2024-02-26T05:59:26;0.00;;;0.00;;
36725;SDS011;44936;52.086;5.150;2024-02-26T06:01:52;0.10;;;0.10;;
36725;SDS011;44936;52.086;5.150;2024-02-26T06:04:17;0.00;;;0.00;;
36725;SDS011;44936;52.086;5.150;2024-02-26T06:06:43;0.00;;;0.00;;
36725;SDS011;44936;52.086;5.150;2024-02-26T06:09:10;0.00;;;0.00;;
36725;SDS011;44936;52.086;5.150;2024-02-26T06:11:36;0.00;;;0.00;;
36725;SDS011;44936;52.086;5.150;2024-02-26T06:14:01;0.00;;;0.00;;
36725;SDS011;44936;52.086;5.150;2024-02-26T06:16:27;0.00;;;0.00;;
36725;SDS011;44936;52.086;5.150;2024-02-26T06:18:52;0.00;;;0.00;;
36725;SDS011;44936;52.086;5.150;2024-02-26T06:21:18;0.00;;;0.00;;
36725;SDS011;44936;52.086;5.150;2024-02-26T06:23:43;0.00;;;0.00;;
36725;SDS011;44936;52.086;5.150;2024-02-26T06:26:08;0.00;;;0.00;;
36725;SDS011;44936;52.086;5.150;2024-02-26T06:28:35;0.00;;;0.00;;
36725;SDS011;44936;52.086;5.150;2024-02-26T06:31:00;0.00;;;0.00;;
36725;SDS011;44936;52.086;5.150;2024-02-26T06:33:26;0.90;;;0.70;;
36725;SDS011;44936;52.086;5.150;2024-02-26T06:35:52;0.00;;;0.00;;
36725;SDS011;44936;52.086;5.150;2024-02-26T06:38:17;0.00;;;0.00;;
36725;SDS011;44936;52.086;5.150;2024-02-26T06:40:43;0.00;;;0.00;;
36725;SDS011;44936;52.086;5.150;2024-02-26T06:43:09;0.00;;;0.00;;
36725;SDS011;44936;52.086;5.150;2024-02-26T06:45:34;0.00;;;0.00;;
36725;SDS011;44936;52.086;5.150;2024-02-26T06:48:00;0.00;;;0.00;;
36725;SDS011;44936;52.086;5.150;2024-02-26T06:50:25;0.00;;;0.00;;
36725;SDS011;44936;52.086;5.150;2024-02-26T06:52:50;0.00;;;0.00;;
36725;SDS011;44936;52.086;5.150;2024-02-26T06:55:16;0.00;;;0.00;;
36725;SDS011;44936;52.086;5.150;2024-02-26T06:57:41;0.00;;;0.00;;
36725;SDS011;44936;52.086;5.150;2024-02-26T07:00:06;0.00;;;0.00;;
36725;SDS011;44936;52.086;5.150;2024-02-26T07:02:32;1.55;;;0.60;;
36725;SDS011;44936;52.086;5.150;2024-02-26T07:04:57;0.00;;;0.00;;
36725;SDS011;44936;52.086;5.150;2024-02-26T07:07:23;0.00;;;0.00;;
36725;SDS011;44936;52.086;5.150;2024-02-26T07:09:49;0.00;;;0.00;;
36725;SDS011;44936;52.086;5.150;2024-02-26T07:12:14;0.00;;;0.00;;
36725;SDS011;44936;52.086;5.150;2024-02-26T07:14:41;0.00;;;0.00;;
36725;SDS011;44936;52.086;5.150;2024-02-26T07:17:06;0.00;;;0.00;;
36725;SDS011;44936;52.086;5.150;2024-02-26T07:19:32;2.38;;;0.70;;
36725;SDS011;44936;52.086;5.150;2024-02-26T07:21:57;0.00;;;0.00;;
36725;SDS011;44936;52.086;5.150;2024-02-26T07:24:23;0.45;;;0.45;;
36725;SDS011;44936;52.086;5.150;2024-02-26T07:26:48;0.00;;;0.00;;
36725;SDS011;44936;52.086;5.150;2024-02-26T07:29:13;0.00;;;0.00;;
36725;SDS011;44936;52.086;5.150;2024-02-26T07:31:38;0.00;;;0.00;;
36725;SDS011;44936;52.086;5.150;2024-02-26T07:34:04;0.00;;;0.00;;
36725;SDS011;44936;52.086;5.150;2024-02-26T07:36:29;1.27;;;0.28;;
36725;SDS011;44936;52.086;5.150;2024-02-26T07:38:55;0.00;;;0.00;;
36725;SDS011;44936;52.086;5.150;2024-02-26T07:41:20;0.00;;;0.00;;
36725;SDS011;44936;52.086;5.150;2024-02-26T07:43:46;0.00;;;0.00;;
36725;SDS011;44936;52.086;5.150;2024-02-26T07:46:11;0.10;;;0.10;;
36725;SDS011;44936;52.086;5.150;2024-02-26T07:48:37;0.00;;;0.00;;
36725;SDS011;44936;52.086;5.150;2024-02-26T07:51:03;0.00;;;0.00;;
36725;SDS011;44936;52.086;5.150;2024-02-26T07:53:29;0.38;;;0.38;;
36725;SDS011;44936;52.086;5.150;2024-02-26T07:55:55;0.00;;;0.00;;
36725;SDS011;44936;52.086;5.150;2024-02-26T07:58:20;0.00;;;0.00;;
36725;SDS011;44936;52.086;5.150;2024-02-26T08:00:45;0.00;;;0.00;;
36725;SDS011;44936;52.086;5.150;2024-02-26T08:03:11;0.00;;;0.00;;
36725;SDS011;44936;52.086;5.150;2024-02-26T08:05:38;0.00;;;0.00;;
36725;SDS011;44936;52.086;5.150;2024-02-26T08:08:05;0.00;;;0.00;;
36725;SDS011;44936;52.086;5.150;2024-02-26T08:10:31;0.00;;;0.00;;
36725;SDS011;44936;52.086;5.150;2024-02-26T08:12:56;0.00;;;0.00;;
36725;SDS011;44936;52.086;5.150;2024-02-26T08:17:55;0.00;;;0.00;;
36725;SDS011;44936;52.086;5.150;2024-02-26T08:20:20;0.00;;;0.00;;
36725;SDS011;44936;52.086;5.150;2024-02-26T08:22:45;0.00;;;0.00;;
36725;SDS011;44936;52.086;5.150;2024-02-26T08:25:10;0.00;;;0.00;;
36725;SDS011;44936;52.086;5.150;2024-02-26T08:27:36;0.00;;;0.00;;
36725;SDS011;44936;52.086;5.150;2024-02-26T08:30:01;0.00;;;0.00;;
36725;SDS011;44936;52.086;5.150;2024-02-26T08:32:27;0.00;;;0.00;;
36725;SDS011;44936;52.086;5.150;2024-02-26T08:34:52;0.10;;;0.10;;
36725;SDS011;44936;52.086;5.150;2024-02-26T08:37:18;0.00;;;0.00;;
36725;SDS011;44936;52.086;5.150;2024-02-26T08:39:43;0.00;;;0.00;;
36725;SDS011;44936;52.086;5.150;2024-02-26T08:42:08;0.00;;;0.00;;
36725;SDS011;44936;52.086;5.150;2024-02-26T08:44:33;0.00;;;0.00;;
36725;SDS011;44936;52.086;5.150;2024-02-26T08:46:59;0.25;;;0.25;;
36725;SDS011;44936;52.086;5.150;2024-02-26T08:49:24;0.00;;;0.00;;
36725;SDS011;44936;52.086;5.150;2024-02-26T08:51:49;0.00;;;0.00;;
36725;SDS011;44936;52.086;5.150;2024-02-26T08:54:15;0.00;;;0.00;;
36725;SDS011;44936;52.086;5.150;2024-02-26T08:56:40;0.00;;;0.00;;
36725;SDS011;44936;52.086;5.150;2024-02-26T08:59:05;0.00;;;0.00;;
36725;SDS011;44936;52.086;5.150;2024-02-26T09:01:31;0.00;;;0.00;;
36725;SDS011;44936;52.086;5.150;2024-02-26T09:03:56;0.00;;;0.00;;
36725;SDS011;44936;52.086;5.150;2024-02-26T09:06:22;6.30;;;2.25;;
36725;SDS011;44936;52.086;5.150;2024-02-26T09:08:47;8.98;;;2.88;;
36725;SDS011;44936;52.086;5.150;2024-02-26T09:11:12;8.68;;;3.15;;
36725;SDS011;44936;52.086;5.150;2024-02-26T09:13:38;6.07;;;2.10;;
36725;SDS011;44936;52.086;5.150;2024-02-26T09:16:03;7.85;;;2.38;;
36725;SDS011;44936;52.086;5.150;2024-02-26T09:18:29;6.10;;;2.28;;
36725;SDS011;44936;52.086;5.150;2024-02-26T09:20:55;6.53;;;2.40;;
36725;SDS011;44936;52.086;5.150;2024-02-26T09:23:20;5.20;;;1.92;;
36725;SDS011;44936;52.086;5.150;2024-02-26T09:25:45;8.13;;;2.58;;
36725;SDS011;44936;52.086;5.150;2024-02-26T09:28:11;4.55;;;1.98;;
36725;SDS011;44936;52.086;5.150;2024-02-26T09:30:36;5.82;;;2.10;;
36725;SDS011;44936;52.086;5.150;2024-02-26T09:33:01;5.78;;;2.22;;
36725;SDS011;44936;52.086;5.150;2024-02-26T09:35:26;9.90;;;2.92;;
36725;SDS011;44936;52.086;5.150;2024-02-26T09:37:52;6.63;;;2.30;;
36725;SDS011;44936;52.086;5.150;2024-02-26T09:40:17;6.55;;;2.50;;
36725;SDS011;44936;52.086;5.150;2024-02-26T09:42:43;6.15;;;2.40;;
36725;SDS011;44936;52.086;5.150;2024-02-26T09:45:11;5.93;;;2.42;;
36725;SDS011;44936;52.086;5.150;2024-02-26T09:47:43;5.13;;;2.03;;
36725;SDS011;44936;52.086;5.150;2024-02-26T09:50:09;5.60;;;2.15;;
36725;SDS011;44936;52.086;5.150;2024-02-26T09:52:37;5.75;;;2.25;;
36725;SDS011;44936;52.086;5.150;2024-02-26T09:55:03;7.22;;;2.38;;
36725;SDS011;44936;52.086;5.150;2024-02-26T09:57:29;8.20;;;1.98;;
36725;SDS011;44936;52.086;5.150;2024-02-26T09:59:57;6.10;;;1.83;;
36725;SDS011;44936;52.086;5.150;2024-02-26T10:02:28;6.23;;;2.10;;
36725;SDS011;44936;52.086;5.150;2024-02-26T10:04:54;7.30;;;2.08;;
36725;SDS011;44936;52.086;5.150;2024-02-26T10:07:22;6.97;;;2.53;;
36725;SDS011;44936;52.086;5.150;2024-02-26T10:09:48;5.45;;;2.22;;
36725;SDS011;44936;52.086;5.150;2024-02-26T10:12:13;4.80;;;1.85;;
36725;SDS011;44936;52.086;5.150;2024-02-26T10:14:42;6.25;;;2.25;;
36725;SDS011;44936;52.086;5.150;2024-02-26T10:17:07;5.07;;;1.85;;
36725;SDS011;44936;52.086;5.150;2024-02-26T10:19:33;7.32;;;2.33;;
36725;SDS011;44936;52.086;5.150;2024-02-26T10:21:59;4.53;;;2.10;;
36725;SDS011;44936;52.086;5.150;2024-02-26T10:24:29;3.25;;;1.67;;
36725;SDS011;44936;52.086;5.150;2024-02-26T10:26:56;5.50;;;2.05;;
36725;SDS011;44936;52.086;5.150;2024-02-26T10:29:23;7.03;;;2.10;;
36725;SDS011;44936;52.086;5.150;2024-02-26T10:31:50;5.90;;;2.25;;
36725;SDS011;44936;52.086;5.150;2024-02-26T10:34:16;5.63;;;1.98;;
36725;SDS011;44936;52.086;5.150;2024-02-26T10:36:42;5.65;;;2.20;;
36725;SDS011;44936;52.086;5.150;2024-02-26T10:39:08;6.57;;;2.30;;
36725;SDS011;44936;52.086;5.150;2024-02-26T10:41:34;6.07;;;2.35;;
36725;SDS011;44936;52.086;5.150;2024-02-26T10:43:59;6.70;;;1.90;;
36725;SDS011;44936;52.086;5.150;2024-02-26T10:46:25;5.07;;;1.95;;
36725;SDS011;44936;52.086;5.150;2024-02-26T10:48:51;4.78;;;1.98;;
36725;SDS011;44936;52.086;5.150;2024-02-26T10:51:20;5.80;;;1.85;;
36725;SDS011;44936;52.086;5.150;2024-02-26T10:53:51;4.82;;;1.60;;
36725;SDS011;44936;52.086;5.150;2024-02-26T10:56:21;5.78;;;1.90;;
36725;SDS011;44936;52.086;5.150;2024-02-26T10:58:50;5.85;;;2.03;;
36725;SDS011;44936;52.086;5.150;2024-02-26T11:01:17;4.65;;;1.65;;
36725;SDS011;44936;52.086;5.150;2024-02-26T11:03:44;5.47;;;2.30;;
36725;SDS011;44936;52.086;5.150;2024-02-26T11:06:10;5.40;;;1.88;;
36725;SDS011;44936;52.086;5.150;2024-02-26T11:08:37;5.25;;;2.20;;
36725;SDS011;44936;52.086;5.150;2024-02-26T11:11:03;4.68;;;1.90;;
36725;SDS011;44936;52.086;5.150;2024-02-26T11:13:30;5.05;;;2.10;;
36725;SDS011;44936;52.086;5.150;2024-02-26T11:15:56;3.65;;;1.67;;
36725;SDS011;44936;52.086;5.150;2024-02-26T11:18:26;6.57;;;2.22;;
36725;SDS011;44936;52.086;5.150;2024-02-26T11:20:52;5.20;;;2.13;;
36725;SDS011;44936;52.086;5.150;2024-02-26T11:23:21;5.45;;;2.00;;
36725;SDS011;44936;52.086;5.150;2024-02-26T11:25:47;4.28;;;2.10;;
36725;SDS011;44936;52.086;5.150;2024-02-26T11:28:18;5.47;;;2.05;;
36725;SDS011;44936;52.086;5.150;2024-02-26T11:30:46;5.65;;;2.10;;
36725;SDS011;44936;52.086;5.150;2024-02-26T11:33:13;5.43;;;1.85;;
36725;SDS011;44936;52.086;5.150;2024-02-26T11:35:39;6.60;;;2.22;;
36725;SDS011;44936;52.086;5.150;2024-02-26T11:38:04;4.80;;;2.10;;
36725;SDS011;44936;52.086;5.150;2024-02-26T11:40:31;5.28;;;2.20;;
36725;SDS011;44936;52.086;5.150;2024-02-26T11:42:57;5.53;;;1.88;;
36725;SDS011;44936;52.086;5.150;2024-02-26T11:48:03;7.50;;;2.85;;
36725;SDS011;44936;52.086;5.150;2024-02-26T11:50:35;4.78;;;1.75;;
36725;SDS011;44936;52.086;5.150;2024-02-26T11:53:19;4.97;;;2.03;;
36725;SDS011;44936;52.086;5.150;2024-02-26T11:59:09;5.88;;;1.67;;
36725;SDS011;44936;52.086;5.150;2024-02-26T12:01:35;4.20;;;1.60;;
36725;SDS011;44936;52.086;5.150;2024-02-26T12:04:24;4.38;;;1.65;;
36725;SDS011;44936;52.086;5.150;2024-02-26T12:06:52;6.18;;;2.15;;
36725;SDS011;44936;52.086;5.150;2024-02-26T12:09:37;4.78;;;1.77;;
36725;SDS011;44936;52.086;5.150;2024-02-26T12:12:04;5.73;;;1.90;;
36725;SDS011;44936;52.086;5.150;2024-02-26T12:14:37;5.10;;;2.10;;
36725;SDS011;44936;52.086;5.150;2024-02-26T12:17:18;5.35;;;1.80;;
36725;SDS011;44936;52.086;5.150;2024-02-26T12:19:50;4.50;;;1.90;;
36725;SDS011;44936;52.086;5.150;2024-02-26T12:22:18;4.63;;;2.22;;
36725;SDS011;44936;52.086;5.150;2024-02-26T12:24:43;3.80;;;1.83;;
36725;SDS011;44936;52.086;5.150;2024-02-26T12:27:09;5.13;;;2.33;;
36725;SDS011;44936;52.086;5.150;2024-02-26T12:29:34;3.58;;;1.58;;
36725;SDS011;44936;52.086;5.150;2024-02-26T12:31:59;5.43;;;2.00;;
36725;SDS011;44936;52.086;5.150;2024-02-26T12:34:25;4.22;;;1.73;;
36725;SDS011;44936;52.086;5.150;2024-02-26T12:36:51;9.68;;;2.60;;
36725;SDS011;44936;52.086;5.150;2024-02-26T12:39:18;4.22;;;1.60;;
36725;SDS011;44936;52.086;5.150;2024-02-26T12:41:45;4.57;;;1.55;;
36725;SDS011;44936;52.086;5.150;2024-02-26T12:44:15;4.28;;;1.70;;
36725;SDS011;44936;52.086;5.150;2024-02-26T12:46:41;5.38;;;1.98;;
36725;SDS011;44936;52.086;5.150;2024-02-26T12:49:06;3.75;;;1.85;;
36725;SDS011;44936;52.086;5.150;2024-02-26T12:51:33;5.57;;;1.73;;
36725;SDS011;44936;52.086;5.150;2024-02-26T12:53:58;7.10;;;2.30;;
36725;SDS011;44936;52.086;5.150;2024-02-26T12:56:24;3.65;;;1.70;;
36725;SDS011;44936;52.086;5.150;2024-02-26T12:58:51;6.95;;;2.40;;
36725;SDS011;44936;52.086;5.150;2024-02-26T13:01:18;5.10;;;2.00;;
36725;SDS011;44936;52.086;5.150;2024-02-26T13:03:45;5.57;;;1.95;;
36725;SDS011;44936;52.086;5.150;2024-02-26T13:06:11;3.83;;;1.63;;
36725;SDS011;44936;52.086;5.150;2024-02-26T13:08:37;4.93;;;1.70;;
36725;SDS011;44936;52.086;5.150;2024-02-26T13:11:02;5.63;;;1.88;;
36725;SDS011;44936;52.086;5.150;2024-02-26T13:13:28;4.43;;;1.70;;
36725;SDS011;44936;52.086;5.150;2024-02-26T13:16:03;6.13;;;1.88;;
36725;SDS011;44936;52.086;5.150;2024-02-26T13:18:29;5.80;;;2.20;;
36725;SDS011;44936;52.086;5.150;2024-02-26T13:21:05;5.00;;;2.10;;
36725;SDS011;44936;52.086;5.150;2024-02-26T13:23:34;6.68;;;1.88;;
36725;SDS011;44936;52.086;5.150;2024-02-26T13:26:00;5.20;;;2.10;;
36725;SDS011;44936;52.086;5.150;2024-02-26T13:28:25;3.35;;;1.63;;
36725;SDS011;44936;52.086;5.150;2024-02-26T13:30:53;4.28;;;1.65;;
36725;SDS011;44936;52.086;5.150;2024-02-26T13:33:23;5.43;;;2.20;;
36725;SDS011;44936;52.086;5.150;2024-02-26T13:35:49;5.68;;;1.83;;
36725;SDS011;44936;52.086;5.150;2024-02-26T13:38:14;4.53;;;1.65;;
36725;SDS011;44936;52.086;5.150;2024-02-26T13:40:40;4.75;;;2.03;;
36725;SDS011;44936;52.086;5.150;2024-02-26T13:43:05;4.65;;;1.63;;
36725;SDS011;44936;52.086;5.150;2024-02-26T13:45:33;4.13;;;1.65;;
36725;SDS011;44936;52.086;5.150;2024-02-26T13:48:01;6.18;;;1.73;;
36725;SDS011;44936;52.086;5.150;2024-02-26T13:50:31;5.43;;;1.80;;
36725;SDS011;44936;52.086;5.150;2024-02-26T13:52:56;4.88;;;1.60;;
36725;SDS011;44936;52.086;5.150;2024-02-26T13:55:23;3.72;;;1.65;;
36725;SDS011;44936;52.086;5.150;2024-02-26T13:57:51;2.45;;;1.27;;
36725;SDS011;44936;52.086;5.150;2024-02-26T14:00:18;5.63;;;1.80;;
36725;SDS011;44936;52.086;5.150;2024-02-26T14:02:44;4.78;;;1.98;;
36725;SDS011;44936;52.086;5.150;2024-02-26T14:05:09;4.45;;;1.98;;
36725;SDS011;44936;52.086;5.150;2024-02-26T14:07:35;3.42;;;1.90;;
36725;SDS011;44936;52.086;5.150;2024-02-26T14:10:00;2.72;;;1.27;;
36725;SDS011;44936;52.086;5.150;2024-02-26T14:12:25;5.00;;;1.48;;
36725;SDS011;44936;52.086;5.150;2024-02-26T14:14:51;5.68;;;1.85;;
36725;SDS011;44936;52.086;5.150;2024-02-26T14:17:18;3.83;;;1.83;;
36725;SDS011;44936;52.086;5.150;2024-02-26T14:19:44;3.55;;;1.23;;
36725;SDS011;44936;52.086;5.150;2024-02-26T14:22:13;3.20;;;1.70;;
36725;SDS011;44936;52.086;5.150;2024-02-26T14:24:38;4.13;;;1.80;;
36725;SDS011;44936;52.086;5.150;2024-02-26T14:27:04;3.42;;;1.55;;
36725;SDS011;44936;52.086;5.150;2024-02-26T14:29:30;4.28;;;1.38;;
36725;SDS011;44936;52.086;5.150;2024-02-26T14:31:55;4.13;;;1.40;;
36725;SDS011;44936;52.086;5.150;2024-02-26T14:34:21;5.40;;;1.42;;
36725;SDS011;44936;52.086;5.150;2024-02-26T14:36:47;4.35;;;1.90;;
36725;SDS011;44936;52.086;5.150;2024-02-26T14:39:12;2.00;;;1.00;;
36725;SDS011;44936;52.086;5.150;2024-02-26T14:41:38;5.65;;;1.48;;
36725;SDS011;44936;52.086;5.150;2024-02-26T14:44:03;2.97;;;1.52;;
36725;SDS011;44936;52.086;5.150;2024-02-26T14:46:29;4.57;;;1.73;;
36725;SDS011;44936;52.086;5.150;2024-02-26T14:48:54;3.38;;;1.40;;